Time;durP1;ratioP1;P1;durP2;ratioP2;P2;SDS_P1;SDS_P2;PMS_P1;PMS_P2;Temp;Humidity;BMP_temperature;BMP_pressure;BME280_temperature;BME280_humidity;BME280_pressure;Samples;Min_cycle;Max_cycle;Signal;HPM_P1;HPM_P2
2023/07/23 00:00:21;;;;;;;5.78;2.05;;;;;;;17.62;49.67;99473.03;10350300;28;20050;-57
2023/07/23 00:05:24;;;;;;;4.80;1.95;;;;;;;17.61;49.72;99469.53;10349484;28;20132;-57
2023/07/23 00:10:26;;;;;;;3.70;1.98;;;;;;;17.56;49.80;99455.94;10347677;28;20064;-58
2023/07/23 00:15:28;;;;;;;4.10;1.80;;;;;;;17.49;50.09;99468.06;10345796;28;20053;-58
2023/07/23 00:20:30;;;;;;;4.38;2.03;;;;;;;17.45;50.48;99461.41;10345907;28;20049;-58
2023/07/23 00:25:32;;;;;;;4.80;1.70;;;;;;;17.46;50.49;99459.59;10346633;28;20184;-57
2023/07/23 00:30:35;;;;;;;3.60;1.77;;;;;;;17.41;50.34;99453.91;10348140;28;20176;-58
2023/07/23 00:35:38;;;;;;;4.45;2.00;;;;;;;17.32;50.93;99452.13;10347236;28;20045;-58
2023/07/23 00:40:40;;;;;;;3.80;2.00;;;;;;;17.11;51.39;99452.34;10347022;28;20390;-58
2023/07/23 00:45:42;;;;;;;4.25;1.98;;;;;;;16.96;51.69;99437.91;10347347;28;20173;-58
2023/07/23 00:50:45;;;;;;;12.30;2.00;;;;;;;16.88;51.79;99427.25;10348171;28;20054;-58
2023/07/23 00:55:48;;;;;;;4.85;2.15;;;;;;;16.77;52.25;99432.72;10344916;28;20046;-58
2023/07/23 01:00:50;;;;;;;4.25;1.92;;;;;;;16.66;52.40;99424.94;10344876;28;20072;-58
2023/07/23 01:06:00;;;;;;;3.35;1.98;;;;;;;16.63;53.20;99425.25;10347169;28;20343;-58
2023/07/23 01:11:02;;;;;;;3.72;1.70;;;;;;;16.58;52.59;99423.03;10344251;28;20455;-58
2023/07/23 01:16:09;;;;;;;3.50;1.90;;;;;;;16.54;52.75;99421.63;10342376;28;20046;-58
2023/07/23 01:21:14;;;;;;;3.55;1.83;;;;;;;16.48;52.94;99410.81;10343397;28;20050;-57
2023/07/23 01:26:17;;;;;;;5.20;2.30;;;;;;;16.36;53.25;99401.34;10342577;28;20157;-58
2023/07/23 01:31:19;;;;;;;3.85;2.00;;;;;;;16.24;53.46;99408.59;10346643;28;20101;-58
2023/07/23 01:36:21;;;;;;;4.50;2.33;;;;;;;16.14;53.77;99402.47;10310943;28;20056;-58
2023/07/23 01:41:24;;;;;;;3.38;1.60;;;;;;;16.07;53.81;99404.84;10361339;28;20521;-58
2023/07/23 01:46:27;;;;;;;3.92;1.77;;;;;;;15.96;54.25;99394.41;10343475;28;20045;-58
2023/07/23 01:51:29;;;;;;;3.05;1.70;;;;;;;15.81;54.71;99390.53;10344775;28;20494;-57
2023/07/23 01:56:31;;;;;;;4.72;2.17;;;;;;;15.70;54.76;99393.28;10345076;28;20088;-57
2023/07/23 02:01:34;;;;;;;3.53;2.03;;;;;;;15.55;55.25;99388.56;10344929;28;20046;-58
2023/07/23 02:06:36;;;;;;;4.43;2.00;;;;;;;15.49;55.13;99384.63;10346636;28;20115;-58
2023/07/23 02:11:38;;;;;;;3.72;1.95;;;;;;;15.47;55.31;99378.63;10347655;28;20134;-57
2023/07/23 02:16:41;;;;;;;5.57;2.67;;;;;;;15.34;55.26;99378.06;10348681;28;20842;-57
2023/07/23 02:21:43;;;;;;;3.10;1.50;;;;;;;15.19;55.84;99372.34;10347337;28;20049;-58
2023/07/23 02:26:45;;;;;;;5.22;2.20;;;;;;;15.12;55.72;99380.91;10350789;28;20059;-59
2023/07/23 02:31:47;;;;;;;3.00;1.80;;;;;;;15.04;55.97;99370.22;10348972;28;20042;-59
2023/07/23 02:36:49;;;;;;;3.88;1.88;;;;;;;14.89;56.46;99374.16;10363517;28;20048;-58
2023/07/23 02:41:51;;;;;;;3.80;1.80;;;;;;;14.77;56.51;99370.81;10350670;28;20510;-59
2023/07/23 02:46:53;;;;;;;4.25;2.08;;;;;;;14.71;56.82;99373.97;10346799;28;20383;-58
2023/07/23 02:51:55;;;;;;;3.78;1.88;;;;;;;14.73;56.86;99376.44;10345893;28;20129;-59
2023/07/23 02:56:57;;;;;;;3.08;1.58;;;;;;;14.66;56.88;99376.13;10350951;28;20418;-59
2023/07/23 03:01:59;;;;;;;4.63;1.80;;;;;;;14.65;56.65;99369.22;10345152;28;20209;-59
2023/07/23 03:07:01;;;;;;;3.72;1.80;;;;;;;14.56;56.94;99372.63;10343244;28;20411;-58
2023/07/23 03:12:04;;;;;;;4.78;1.70;;;;;;;14.56;57.12;99365.56;10339506;28;20143;-59
2023/07/23 03:17:06;;;;;;;4.00;2.05;;;;;;;14.57;56.84;99361.13;10342806;28;20133;-58
2023/07/23 03:22:08;;;;;;;4.45;1.83;;;;;;;14.55;57.02;99371.78;10324595;28;20046;-58
2023/07/23 03:27:10;;;;;;;3.17;1.65;;;;;;;14.36;57.35;99369.00;10342370;28;20053;-59
2023/07/23 03:32:12;;;;;;;4.25;1.92;;;;;;;14.32;57.62;99366.75;10340119;28;20494;-58
2023/07/23 03:37:14;;;;;;;2.78;1.45;;;;;;;14.28;57.67;99368.81;10342854;28;20053;-58
2023/07/23 03:42:16;;;;;;;6.82;2.25;;;;;;;14.21;57.58;99372.91;10340687;28;20069;-58
2023/07/23 03:47:19;;;;;;;6.45;2.38;;;;;;;14.15;57.58;99365.53;10341666;28;20046;-59
2023/07/23 03:52:22;;;;;;;3.80;1.58;;;;;;;14.16;57.50;99367.22;10355724;28;20045;-58
2023/07/23 03:57:24;;;;;;;2.85;1.73;;;;;;;14.20;57.70;99366.00;10343574;28;20572;-59
2023/07/23 04:02:26;;;;;;;3.05;1.83;;;;;;;14.24;57.74;99362.16;10337799;28;20042;-58
2023/07/23 04:07:28;;;;;;;2.90;1.60;;;;;;;14.24;57.42;99356.91;10344166;28;20058;-59
2023/07/23 04:12:33;;;;;;;3.20;1.70;;;;;;;14.18;57.61;99367.94;10347432;28;20625;-59
2023/07/23 04:17:35;;;;;;;3.63;1.65;;;;;;;14.15;57.72;99360.28;10347430;28;20041;-59
2023/07/23 04:22:37;;;;;;;3.13;1.75;;;;;;;14.29;57.68;99359.97;10348658;28;20046;-59
2023/07/23 04:27:39;;;;;;;3.72;1.88;;;;;;;14.67;57.41;99358.56;10349216;28;20063;-59
2023/07/23 04:32:41;;;;;;;4.05;1.58;;;;;;;15.07;56.88;99362.03;10345747;28;20223;-59
2023/07/23 04:37:43;;;;;;;3.92;2.00;;;;;;;16.29;55.06;99361.47;10349043;28;20076;-59
2023/07/23 04:42:45;;;;;;;3.95;1.92;;;;;;;17.58;52.27;99350.84;10344887;28;20050;-59
2023/07/23 04:47:47;;;;;;;3.20;1.63;;;;;;;18.72;50.34;99348.16;10347099;28;20064;-59
2023/07/23 04:52:49;;;;;;;4.60;1.70;;;;;;;18.71;49.76;99345.66;10348987;28;20465;-59
2023/07/23 04:57:51;;;;;;;3.40;1.60;;;;;;;18.03;50.18;99340.19;10347387;28;20058;-59
2023/07/23 05:02:53;;;;;;;4.10;1.73;;;;;;;19.06;48.79;99334.91;10347226;28;20128;-59
2023/07/23 05:07:55;;;;;;;2.92;1.63;;;;;;;21.65;44.98;99334.50;10348978;28;20057;-59
2023/07/23 05:12:58;;;;;;;4.32;1.50;;;;;;;20.81;45.18;99331.72;10347548;28;20046;-59
2023/07/23 05:18:00;;;;;;;3.40;1.63;;;;;;;19.92;46.64;99341.63;10344133;28;20083;-59
2023/07/23 05:23:02;;;;;;;3.30;1.60;;;;;;;19.09;47.63;99330.16;10346920;28;20516;-59
2023/07/23 05:28:04;;;;;;;3.75;1.73;;;;;;;19.00;47.76;99340.81;10328980;28;20449;-59
2023/07/23 05:33:07;;;;;;;3.28;1.60;;;;;;;19.65;47.13;99332.09;10348123;28;20505;-59
2023/07/23 05:38:10;;;;;;;3.33;1.77;;;;;;;19.65;47.02;99325.94;10343257;28;20167;-59
2023/07/23 05:43:17;;;;;;;2.83;1.60;;;;;;;19.66;47.30;99322.31;10346540;28;20136;-59
2023/07/23 05:48:19;;;;;;;4.97;1.70;;;;;;;19.66;47.47;99323.16;10344084;28;20096;-59
2023/07/23 05:53:21;;;;;;;3.20;1.70;;;;;;;19.49;47.69;99318.81;10346666;28;20077;-59
2023/07/23 05:58:23;;;;;;;3.53;1.70;;;;;;;18.91;48.53;99310.81;10345439;28;20204;-59
2023/07/23 06:03:25;;;;;;;4.75;1.48;;;;;;;18.98;49.11;99305.69;10344072;28;20041;-59
2023/07/23 06:08:37;;;;;;;4.20;1.90;;;;;;;19.15;49.01;99313.59;10344852;28;20810;-59
2023/07/23 06:13:39;;;;;;;2.80;1.48;;;;;;;19.44;48.54;99308.69;10360541;28;20089;-59
2023/07/23 06:18:41;;;;;;;2.25;1.40;;;;;;;19.92;47.34;99304.47;10345036;28;20522;-59
2023/07/23 06:23:43;;;;;;;3.05;1.52;;;;;;;20.35;45.47;99300.59;10345949;28;20395;-60
2023/07/23 06:28:45;;;;;;;3.40;1.27;;;;;;;21.41;43.92;99302.75;10343875;28;20475;-59
2023/07/23 06:33:47;;;;;;;3.95;1.40;;;;;;;21.97;42.24;99296.16;10342570;28;20044;-59
2023/07/23 06:38:49;;;;;;;2.05;1.10;;;;;;;21.96;40.79;99292.69;10342920;28;20056;-59
2023/07/23 06:43:51;;;;;;;2.63;1.40;;;;;;;21.92;41.45;99294.06;10343392;28;20057;-59
2023/07/23 06:48:54;;;;;;;2.83;1.50;;;;;;;21.90;41.27;99288.09;10344900;28;20056;-61
2023/07/23 06:53:56;;;;;;;2.72;1.30;;;;;;;22.12;40.73;99297.91;10342765;28;20366;-61
2023/07/23 06:58:57;;;;;;;1.67;1.10;;;;;;;22.25;40.53;99299.94;10343217;28;20050;-61
2023/07/23 07:03:59;;;;;;;1.42;1.10;;;;;;;21.89;40.27;99291.75;10343231;28;20145;-61
2023/07/23 07:09:02;;;;;;;3.97;1.05;;;;;;;22.04;40.02;99310.47;10343642;28;20054;-61
2023/07/23 07:14:05;;;;;;;2.13;0.90;;;;;;;21.64;39.30;99306.25;10342972;28;20226;-60
2023/07/23 07:19:07;;;;;;;3.55;1.45;;;;;;;21.41;39.87;99303.56;10343559;28;20107;-60
2023/07/23 07:24:09;;;;;;;2.65;1.27;;;;;;;21.16;40.87;99303.84;10344044;28;20046;-60
2023/07/23 07:29:11;;;;;;;2.08;1.25;;;;;;;21.05;40.85;99302.38;10341674;28;20465;-60
2023/07/23 07:34:13;;;;;;;2.20;1.10;;;;;;;20.86;40.98;99314.28;10342344;28;20100;-60
2023/07/23 07:39:15;;;;;;;2.08;1.10;;;;;;;21.02;41.05;99294.78;10342870;28;20146;-60
2023/07/23 07:44:17;;;;;;;3.20;1.30;;;;;;;21.25;40.55;99284.19;10347857;28;20048;-60
2023/07/23 07:49:19;;;;;;;2.42;1.25;;;;;;;21.59;40.53;99297.97;10351100;28;20042;-60
2023/07/23 07:54:21;;;;;;;1.98;1.08;;;;;;;21.70;39.67;99289.59;10350915;28;20182;-60
2023/07/23 07:59:23;;;;;;;2.92;1.50;;;;;;;21.82;39.52;99277.50;10348348;28;20069;-60
2023/07/23 08:04:26;;;;;;;3.83;1.35;;;;;;;22.02;39.73;99297.28;10348679;28;20127;-60
2023/07/23 08:09:30;;;;;;;4.32;1.40;;;;;;;21.79;39.86;99307.13;10349012;28;20065;-60
2023/07/23 08:14:37;;;;;;;1.63;1.13;;;;;;;21.67;40.05;99305.88;10349028;28;20060;-60
2023/07/23 08:19:39;;;;;;;3.10;1.20;;;;;;;21.58;40.01;99298.94;10347268;28;20042;-60
2023/07/23 08:24:41;;;;;;;2.35;1.17;;;;;;;21.74;39.65;99291.69;10347706;28;20545;-61
2023/07/23 08:29:45;;;;;;;3.10;1.15;;;;;;;22.03;39.79;99293.66;10348853;28;20486;-61
2023/07/23 08:34:51;;;;;;;2.20;1.45;;;;;;;21.95;39.81;99314.97;10344175;28;20453;-60
2023/07/23 08:39:57;;;;;;;2.50;1.08;;;;;;;22.21;39.56;99312.78;10349011;28;20046;-61
2023/07/23 08:45:08;;;;;;;2.58;1.20;;;;;;;22.18;39.66;99320.31;10349135;28;20054;-61
2023/07/23 08:50:13;;;;;;;3.80;1.20;;;;;;;22.05;39.96;99318.25;10345857;28;20441;-61
2023/07/23 08:55:16;;;;;;;3.03;1.38;;;;;;;22.09;39.66;99305.44;10345258;28;20049;-61
2023/07/23 09:00:18;;;;;;;2.35;1.10;;;;;;;22.35;39.44;99297.84;10334625;28;20052;-61
2023/07/23 09:05:20;;;;;;;1.75;1.10;;;;;;;22.27;39.48;99308.59;10342967;28;20140;-61
2023/07/23 09:10:22;;;;;;;1.38;0.93;;;;;;;22.27;39.51;99304.06;10340026;28;20053;-60
2023/07/23 09:15:24;;;;;;;1.38;1.00;;;;;;;22.15;39.68;99315.38;10338609;28;20121;-61
2023/07/23 09:20:26;;;;;;;1.75;1.05;;;;;;;22.28;39.42;99295.09;10323970;28;20131;-61
2023/07/23 09:25:30;;;;;;;3.75;1.15;;;;;;;22.40;38.76;99293.63;10338988;28;20045;-61
2023/07/23 09:30:32;;;;;;;1.30;0.88;;;;;;;22.53;39.50;99303.66;10334723;28;20410;-61
2023/07/23 09:35:36;;;;;;;2.35;1.17;;;;;;;22.73;39.59;99296.78;10339469;28;20129;-61
2023/07/23 09:40:41;;;;;;;1.17;0.93;;;;;;;23.05;38.96;99301.72;10345060;28;20062;-61
2023/07/23 09:45:44;;;;;;;2.40;1.20;;;;;;;23.57;37.81;99309.56;10344329;28;20042;-61
2023/07/23 09:50:48;;;;;;;1.15;0.88;;;;;;;23.63;38.74;99323.97;10341435;28;20169;-60
2023/07/23 09:55:52;;;;;;;1.15;0.80;;;;;;;22.95;40.12;99322.53;10339549;28;20069;-60
2023/07/23 10:00:54;;;;;;;1.88;0.95;;;;;;;22.75;41.25;99328.59;10328562;28;20208;-61
2023/07/23 10:05:58;;;;;;;1.48;0.90;;;;;;;22.52;42.44;99334.81;10343783;28;20140;-61
2023/07/23 10:11:00;;;;;;;2.50;0.90;;;;;;;22.40;43.19;99332.75;10340526;28;20092;-60
2023/07/23 10:16:07;;;;;;;7.30;1.20;;;;;;;22.43;43.57;99332.41;10344643;28;20461;-60
2023/07/23 10:21:10;;;;;;;1.13;0.90;;;;;;;22.81;43.49;99326.03;10342312;28;20381;-60
2023/07/23 10:26:29;;;;;;;1.73;1.08;;;;;;;23.57;43.54;99314.91;10326077;28;20148;-60
2023/07/23 10:31:31;;;;;;;2.53;0.98;;;;;;;24.42;41.47;99309.50;10344133;28;20566;-61
2023/07/23 10:37:14;;;;;;;1.17;0.90;;;;;;;24.82;39.73;99304.22;10335879;28;20042;-61
2023/07/23 10:42:35;;;;;;;1.40;0.90;;;;;;;24.48;39.91;99298.84;10341342;28;20316;-61
2023/07/23 10:47:47;;;;;;;1.55;0.80;;;;;;;24.15;40.35;99295.09;10342559;28;20050;-61
2023/07/23 10:53:00;;;;;;;1.00;0.90;;;;;;;23.73;41.33;99287.13;10326172;28;20049;-61
2023/07/23 10:58:15;;;;;;;2.33;1.10;;;;;;;23.68;41.21;99290.34;10341272;28;20038;-61
2023/07/23 11:03:18;;;;;;;2.60;1.00;;;;;;;23.46;41.47;99286.84;10339058;28;20049;-61
2023/07/23 11:08:24;;;;;;;2.22;1.25;;;;;;;23.49;41.63;99289.13;10341729;28;21491;-60
2023/07/23 11:13:32;;;;;;;1.58;1.00;;;;;;;23.31;42.91;99290.53;10339274;28;20423;-61
2023/07/23 11:18:34;;;;;;;1.40;0.80;;;;;;;23.45;42.11;99285.19;10346703;28;20049;-60
2023/07/23 11:23:36;;;;;;;1.13;0.82;;;;;;;23.52;41.59;99282.59;10351497;28;20189;-61
2023/07/23 11:28:38;;;;;;;2.75;1.05;;;;;;;23.37;42.94;99290.59;10351556;28;20365;-60
2023/07/23 11:33:40;;;;;;;1.08;0.65;;;;;;;22.76;43.80;99288.41;10334255;28;20436;-61
2023/07/23 11:38:42;;;;;;;1.27;0.88;;;;;;;22.55;43.78;99289.16;10351719;28;20060;-60
2023/07/23 11:43:44;;;;;;;0.82;0.80;;;;;;;22.17;43.33;99295.50;10347992;28;20464;-60
2023/07/23 11:48:46;;;;;;;0.90;0.80;;;;;;;21.82;43.67;99288.97;10350072;28;20050;-60
2023/07/23 11:53:51;;;;;;;1.70;0.90;;;;;;;22.01;46.32;99287.63;10349943;28;20674;-60
2023/07/23 11:58:53;;;;;;;1.85;0.90;;;;;;;22.68;44.82;99278.66;10350398;28;20049;-60
2023/07/23 12:04:00;;;;;;;1.60;1.00;;;;;;;23.06;44.41;99275.88;10348675;28;20054;-60
2023/07/23 12:09:11;;;;;;;1.98;0.93;;;;;;;23.20;44.67;99267.84;10349920;28;20046;-60
2023/07/23 12:14:14;;;;;;;1.20;0.75;;;;;;;23.16;44.06;99279.09;10348933;28;20049;-60
2023/07/23 12:19:19;;;;;;;1.30;0.80;;;;;;;23.21;45.12;99287.34;10348339;28;20506;-61
2023/07/23 12:24:26;;;;;;;1.50;0.90;;;;;;;23.15;46.32;99288.09;10348406;28;20438;-61
2023/07/23 12:29:29;;;;;;;3.10;1.75;;;;;;;23.09;45.00;99267.50;10348733;28;20050;-61
2023/07/23 12:34:31;;;;;;;1.38;0.80;;;;;;;23.11;44.91;99268.13;10344606;28;20549;-60
2023/07/23 12:39:33;;;;;;;2.22;1.15;;;;;;;23.29;45.08;99271.22;10350152;28;20058;-60
2023/07/23 12:44:35;;;;;;;1.40;0.65;;;;;;;23.67;45.48;99272.69;10347290;28;20050;-61
2023/07/23 12:49:37;;;;;;;1.10;0.90;;;;;;;23.67;45.35;99253.16;10350219;28;20064;-61
2023/07/23 12:54:39;;;;;;;2.15;0.90;;;;;;;23.75;44.72;99250.38;10347567;28;20132;-60
2023/07/23 12:59:43;;;;;;;2.88;1.00;;;;;;;24.07;43.71;99252.50;10347713;28;20042;-60
2023/07/23 13:04:45;;;;;;;1.00;0.75;;;;;;;24.29;42.37;99240.75;10347824;28;20046;-61
2023/07/23 13:09:49;;;;;;;1.67;1.02;;;;;;;24.57;41.86;99235.38;10348906;28;20124;-61
2023/07/23 13:14:51;;;;;;;1.63;1.00;;;;;;;24.91;41.25;99228.16;10347900;28;20129;-60
2023/07/23 13:19:53;;;;;;;1.77;1.10;;;;;;;24.91;41.62;99222.81;10347704;28;20066;-61
2023/07/23 13:24:55;;;;;;;0.90;0.63;;;;;;;25.18;40.80;99218.38;10345793;28;20128;-61
2023/07/23 13:29:58;;;;;;;1.85;0.90;;;;;;;25.19;40.34;99220.00;10346311;28;20132;-61
2023/07/23 13:35:00;;;;;;;0.80;0.73;;;;;;;24.99;39.91;99211.09;10343909;28;20073;-61
2023/07/23 13:40:03;;;;;;;4.63;0.80;;;;;;;25.66;38.82;99208.34;10346317;28;20052;-61
2023/07/23 13:45:05;;;;;;;2.55;1.08;;;;;;;25.62;37.33;99207.94;10345802;28;20053;-61
2023/07/23 13:50:07;;;;;;;1.65;0.90;;;;;;;25.82;37.14;99208.78;10345065;28;20072;-61
2023/07/23 13:55:28;;;;;;;1.30;0.82;;;;;;;25.95;37.01;99207.13;10342882;28;20128;-61
2023/07/23 14:00:30;;;;;;;1.90;1.20;;;;;;;25.74;36.20;99203.63;10345741;28;20100;-61
2023/07/23 14:05:32;;;;;;;1.25;0.80;;;;;;;26.02;36.00;99202.63;10343563;28;20220;-61
2023/07/23 14:10:36;;;;;;;0.85;0.77;;;;;;;26.07;35.88;99203.63;10340673;28;20294;-61
2023/07/23 14:15:38;;;;;;;2.25;0.73;;;;;;;25.80;35.83;99205.47;10337971;28;20516;-61
2023/07/23 14:20:40;;;;;;;2.97;0.60;;;;;;;25.90;35.42;99192.47;10339231;28;20053;-61
2023/07/23 14:25:42;;;;;;;0.82;0.68;;;;;;;25.89;35.60;99193.50;10340123;28;20072;-61
2023/07/23 14:30:47;;;;;;;0.47;0.43;;;;;;;25.77;35.04;99191.69;10341998;28;20963;-61
2023/07/23 14:35:53;;;;;;;1.67;0.80;;;;;;;25.57;35.59;99186.31;10341140;28;20054;-61
2023/07/23 14:40:55;;;;;;;1.10;0.75;;;;;;;25.46;35.84;99173.53;10341680;28;20104;-61
2023/07/23 14:45:57;;;;;;;0.57;0.57;;;;;;;25.42;35.69;99188.38;10339574;28;20156;-61
2023/07/23 14:51:00;;;;;;;1.67;0.82;;;;;;;25.40;35.79;99189.59;10338216;28;20048;-61
2023/07/23 14:56:02;;;;;;;2.33;0.70;;;;;;;25.39;35.96;99178.06;10340313;28;20054;-61
2023/07/23 15:01:04;;;;;;;1.58;0.80;;;;;;;25.34;35.79;99172.50;10339800;28;20119;-61
2023/07/23 15:06:06;;;;;;;2.92;0.82;;;;;;;25.50;35.79;99180.13;10336364;28;20157;-61
2023/07/23 15:11:08;;;;;;;1.83;0.57;;;;;;;25.45;35.78;99177.25;10332451;28;20050;-61
2023/07/23 15:16:10;;;;;;;1.13;0.60;;;;;;;25.02;36.13;99189.28;10344153;28;20144;-60
2023/07/23 15:21:12;;;;;;;1.52;0.60;;;;;;;24.70;36.49;99197.97;10342614;28;20050;-59
2023/07/23 15:26:19;;;;;;;1.02;0.65;;;;;;;24.31;36.89;99201.28;10341093;28;20053;-61
2023/07/23 15:31:21;;;;;;;2.70;0.80;;;;;;;24.05;37.45;99193.91;10341202;28;20133;-61
2023/07/23 15:36:24;;;;;;;0.50;0.50;;;;;;;24.06;37.71;99200.88;10342558;28;20053;-61
2023/07/23 15:41:26;;;;;;;0.88;0.68;;;;;;;24.10;37.48;99191.50;10339344;28;20049;-61
2023/07/23 15:46:29;;;;;;;1.33;0.52;;;;;;;24.13;37.66;99200.97;10343091;28;20056;-61
2023/07/23 15:51:31;;;;;;;0.77;0.60;;;;;;;23.88;38.25;99194.41;10341690;28;20046;-61
2023/07/23 15:56:33;;;;;;;0.32;0.32;;;;;;;23.78;38.26;99208.06;10341915;28;20203;-61
2023/07/23 16:01:35;;;;;;;1.08;0.70;;;;;;;23.71;38.40;99217.91;10341862;28;20054;-61
2023/07/23 16:06:38;;;;;;;1.20;0.65;;;;;;;23.46;38.50;99200.63;10348140;28;20054;-60
2023/07/23 16:11:40;;;;;;;2.67;0.80;;;;;;;23.35;38.97;99206.44;10349132;28;20045;-61
2023/07/23 16:16:42;;;;;;;1.80;0.90;;;;;;;23.57;39.87;99204.63;10349407;28;20042;-61
2023/07/23 16:21:44;;;;;;;1.63;0.90;;;;;;;23.77;39.48;99202.94;10348184;28;20112;-61
2023/07/23 16:26:46;;;;;;;2.17;0.90;;;;;;;23.54;40.16;99200.47;10347350;28;20049;-61
2023/07/23 16:31:48;;;;;;;1.70;0.90;;;;;;;23.33;41.65;99206.63;10347835;28;20494;-61
2023/07/23 16:36:51;;;;;;;1.27;0.88;;;;;;;22.64;44.10;99228.56;10344780;28;20044;-61
2023/07/23 16:41:53;;;;;;;2.35;1.10;;;;;;;22.20;46.04;99230.41;10343824;28;20445;-61
2023/07/23 16:46:55;;;;;;;1.05;0.70;;;;;;;21.74;47.24;99217.16;10340450;28;20485;-61
2023/07/23 16:51:58;;;;;;;0.98;0.70;;;;;;;21.47;48.20;99216.91;10336696;28;20042;-61
2023/07/23 16:57:00;;;;;;;2.05;0.68;;;;;;;21.46;49.17;99204.59;10339568;28;20492;-61
2023/07/23 17:02:02;;;;;;;1.30;0.60;;;;;;;21.56;49.59;99205.16;10340930;28;20048;-61
2023/07/23 17:07:04;;;;;;;1.15;0.77;;;;;;;21.61;49.37;99200.16;10344333;28;20101;-61
2023/07/23 17:12:06;;;;;;;1.13;0.70;;;;;;;21.71;50.08;99198.91;10340031;28;20300;-61
2023/07/23 17:17:08;;;;;;;2.55;0.85;;;;;;;21.68;49.87;99201.91;10341991;28;20133;-60
2023/07/23 17:22:10;;;;;;;1.75;0.90;;;;;;;21.72;49.45;99183.78;10345042;28;20076;-61
2023/07/23 17:27:12;;;;;;;1.42;0.95;;;;;;;21.68;49.50;99195.78;10345715;28;20053;-61
2023/07/23 17:32:15;;;;;;;1.02;0.73;;;;;;;21.62;49.57;99196.50;10343560;28;20053;-61
2023/07/23 17:37:19;;;;;;;0.82;0.77;;;;;;;21.53;49.80;99194.91;10344213;28;20056;-61
2023/07/23 17:42:20;;;;;;;2.47;0.90;;;;;;;21.37;49.46;99205.66;10339414;28;20131;-61
2023/07/23 17:47:22;;;;;;;0.85;0.70;;;;;;;21.20;49.38;99204.09;10342016;28;20057;-61
2023/07/23 17:52:25;;;;;;;1.45;0.77;;;;;;;21.24;49.75;99190.25;10344049;28;20104;-61
2023/07/23 17:57:27;;;;;;;1.38;0.77;;;;;;;21.08;49.95;99191.22;10346368;28;20477;-61
2023/07/23 18:02:30;;;;;;;2.08;0.73;;;;;;;21.12;50.00;99194.34;10339163;28;20450;-61
2023/07/23 18:07:32;;;;;;;1.63;0.98;;;;;;;20.81;50.99;99173.09;10333721;28;20521;-61
2023/07/23 18:12:34;;;;;;;1.98;0.82;;;;;;;20.92;50.26;99180.69;10331242;28;20064;-61
2023/07/23 18:17:36;;;;;;;1.17;0.82;;;;;;;21.02;50.57;99181.28;10334388;28;20168;-61
2023/07/23 18:22:39;;;;;;;0.70;0.50;;;;;;;21.08;50.04;99177.91;10326564;28;20568;-61
2023/07/23 18:27:41;;;;;;;1.48;0.70;;;;;;;21.09;50.47;99179.56;10330477;28;20057;-61
2023/07/23 18:32:44;;;;;;;1.60;0.70;;;;;;;21.06;50.41;99177.28;10336007;28;20096;-61
2023/07/23 18:37:58;;;;;;;1.65;0.60;;;;;;;21.11;50.24;99176.72;10331337;28;20046;-61
2023/07/23 18:43:00;;;;;;;2.35;0.77;;;;;;;21.20;50.43;99166.84;10329170;28;20435;-61
2023/07/23 18:48:03;;;;;;;1.20;0.70;;;;;;;21.19;50.27;99170.53;10324520;28;20046;-61
2023/07/23 18:53:05;;;;;;;0.77;0.60;;;;;;;21.26;49.97;99161.66;10338180;28;20046;-61
2023/07/23 18:58:08;;;;;;;1.42;0.73;;;;;;;21.35;50.06;99167.78;10330314;28;20486;-61
2023/07/23 19:03:11;;;;;;;0.70;0.70;;;;;;;21.35;50.15;99159.81;10327256;28;20139;-61
2023/07/23 19:08:14;;;;;;;1.13;0.70;;;;;;;21.34;50.25;99156.31;10331914;28;20494;-61
2023/07/23 19:13:20;;;;;;;0.50;0.47;;;;;;;21.23;50.56;99156.72;10330948;28;20049;-59
2023/07/23 19:18:23;;;;;;;0.50;0.40;;;;;;;21.06;50.38;99147.19;10328529;28;20052;-59
2023/07/23 19:23:27;;;;;;;1.48;0.85;;;;;;;20.90;50.33;99142.81;10337795;28;20081;-59
2023/07/23 19:28:29;;;;;;;1.02;0.70;;;;;;;20.79;50.82;99153.84;10339746;28;20096;-59
2023/07/23 19:33:32;;;;;;;1.77;1.00;;;;;;;20.66;50.96;99163.41;10338162;28;20048;-59
2023/07/23 19:38:35;;;;;;;0.80;0.60;;;;;;;20.55;51.23;99158.44;10343516;28;20144;-59
2023/07/23 19:43:37;;;;;;;1.73;1.08;;;;;;;20.41;52.22;99165.31;10343194;28;20050;-59
2023/07/23 19:48:42;;;;;;;0.63;0.52;;;;;;;20.28;52.29;99171.16;10328398;28;20046;-59
2023/07/23 19:53:44;;;;;;;1.35;0.93;;;;;;;20.29;52.25;99178.09;10339748;28;20595;-59
2023/07/23 19:58:46;;;;;;;1.05;0.80;;;;;;;20.16;52.71;99179.66;10343824;28;20088;-59
2023/07/23 20:03:48;;;;;;;0.93;0.63;;;;;;;20.14;53.33;99174.53;10334741;28;20390;-59
2023/07/23 20:08:51;;;;;;;1.08;0.57;;;;;;;20.20;53.34;99173.00;10342897;28;20817;-59
2023/07/23 20:13:54;;;;;;;1.55;0.90;;;;;;;20.16;53.65;99183.16;10343271;28;20422;-59
2023/07/23 20:18:56;;;;;;;1.17;0.70;;;;;;;20.09;54.08;99182.16;10338926;28;20050;-59
2023/07/23 20:23:58;;;;;;;1.30;0.90;;;;;;;19.99;54.00;99178.06;10337734;28;20177;-59
2023/07/23 20:29:03;;;;;;;0.70;0.70;;;;;;;19.74;54.41;99187.03;10341773;28;20085;-59
2023/07/23 20:34:05;;;;;;;1.30;0.77;;;;;;;19.75;54.79;99186.00;10330780;28;20140;-59
2023/07/23 20:39:08;;;;;;;3.83;0.73;;;;;;;19.68;54.73;99180.56;10341708;28;20041;-59
2023/07/23 20:44:10;;;;;;;1.15;0.70;;;;;;;19.72;54.94;99187.19;10345436;28;20204;-59
2023/07/23 20:49:12;;;;;;;1.02;0.80;;;;;;;19.76;55.33;99185.03;10343314;28;20060;-59
2023/07/23 20:54:14;;;;;;;1.02;0.88;;;;;;;19.68;56.01;99190.34;10344927;28;20053;-59
2023/07/23 20:59:16;;;;;;;1.85;1.00;;;;;;;19.45;56.48;99185.72;10344351;28;20045;-59
2023/07/23 21:04:18;;;;;;;1.38;0.82;;;;;;;19.39;56.53;99178.41;10346217;28;20050;-58
2023/07/23 21:09:20;;;;;;;1.02;0.93;;;;;;;19.36;57.29;99170.78;10344032;28;20054;-59
2023/07/23 21:14:22;;;;;;;2.55;1.13;;;;;;;19.34;57.12;99180.72;10344482;28;20141;-59
2023/07/23 21:19:24;;;;;;;1.30;0.80;;;;;;;19.23;57.40;99166.97;10342517;28;20050;-59
2023/07/23 21:24:26;;;;;;;1.55;0.98;;;;;;;19.07;57.76;99181.06;10344430;28;20469;-59
2023/07/23 21:29:28;;;;;;;1.33;0.90;;;;;;;19.01;57.84;99163.09;10341893;28;20076;-59
2023/07/23 21:34:30;;;;;;;1.65;1.13;;;;;;;19.06;58.29;99162.63;10341517;28;20133;-59
2023/07/23 21:39:32;;;;;;;1.50;1.00;;;;;;;19.04;58.69;99160.16;10344052;28;20038;-59
2023/07/23 21:44:34;;;;;;;1.55;0.93;;;;;;;18.92;58.60;99150.84;10343322;28;20046;-59
2023/07/23 21:49:36;;;;;;;1.17;1.00;;;;;;;18.94;59.09;99148.84;10340839;28;20069;-59
2023/07/23 21:54:39;;;;;;;1.65;1.05;;;;;;;18.91;59.20;99141.22;10340052;28;20293;-59
2023/07/23 21:59:42;;;;;;;1.92;1.08;;;;;;;18.89;59.43;99139.75;10341912;28;20499;-59
2023/07/23 22:04:44;;;;;;;3.58;0.80;;;;;;;18.84;59.39;99139.41;10341333;28;20046;-59
2023/07/23 22:10:06;;;;;;;1.25;0.80;;;;;;;18.81;59.87;99142.38;10343560;28;20312;-59
2023/07/23 22:15:09;;;;;;;1.40;0.90;;;;;;;18.76;59.47;99132.28;10342094;28;20125;-59
2023/07/23 22:20:11;;;;;;;1.90;1.27;;;;;;;18.78;59.36;99126.78;10342012;28;20128;-59
2023/07/23 22:25:13;;;;;;;3.38;1.02;;;;;;;18.71;59.62;99117.88;10341681;28;20526;-59
2023/07/23 22:30:15;;;;;;;1.45;0.88;;;;;;;18.79;60.13;99116.03;10341433;28;20100;-59
2023/07/23 22:35:33;;;;;;;1.27;0.88;;;;;;;18.72;60.12;99123.00;10341535;28;20053;-60
2023/07/23 22:40:35;;;;;;;1.60;0.90;;;;;;;18.74;60.50;99112.22;10340273;28;20884;-58
2023/07/23 22:45:37;;;;;;;1.60;0.88;;;;;;;18.62;60.39;99117.00;10342207;28;20132;-58
2023/07/23 22:50:40;;;;;;;4.07;1.02;;;;;;;18.59;60.53;99115.50;10337894;28;20123;-59
2023/07/23 22:55:42;;;;;;;0.88;0.80;;;;;;;18.53;60.17;99118.81;10339973;28;20527;-59
2023/07/23 23:00:44;;;;;;;1.20;0.82;;;;;;;18.33;60.86;99108.66;10342264;28;20068;-59
2023/07/23 23:05:49;;;;;;;1.42;0.80;;;;;;;18.35;61.19;99109.31;10341147;28;20107;-59
2023/07/23 23:10:51;;;;;;;3.65;1.00;;;;;;;18.43;60.80;99094.28;10339366;28;20399;-59
2023/07/23 23:15:53;;;;;;;1.02;0.90;;;;;;;18.37;61.22;99075.56;10339326;28;20611;-59
2023/07/23 23:20:55;;;;;;;1.17;0.90;;;;;;;18.41;61.12;99076.91;10340683;28;20414;-59
2023/07/23 23:25:57;;;;;;;2.95;0.90;;;;;;;18.40;61.00;99077.91;10340495;28;20061;-59